Time;durP1;ratioP1;P1;durP2;ratioP2;P2;SDS_P1;SDS_P2;PMS_P1;PMS_P2;Temp;Humidity;BMP_temperature;BMP_pressure;BME280_temperature;BME280_humidity;BME280_pressure;Samples;Min_cycle;Max_cycle;Signal;HPM_P1;HPM_P2
2022/09/01 00:02:15;;;;;;;19.57;17.70;;;16.80;99.90;;;;;;5011765;28;20430;-68
2022/09/01 00:04:43;;;;;;;21.20;19.10;;;16.70;99.90;;;;;;5011609;28;20544;-69
2022/09/01 00:07:10;;;;;;;19.43;17.50;;;16.70;99.90;;;;;;5011518;28;20431;-68
2022/09/01 00:09:37;;;;;;;19.77;17.80;;;16.80;99.90;;;;;;5011717;28;20520;-68
2022/09/01 00:12:05;;;;;;;20.50;18.60;;;16.70;99.90;;;;;;5011869;28;20470;-68
2022/09/01 00:14:34;;;;;;;21.53;19.40;;;16.70;99.90;;;;;;5011788;28;20437;-68
2022/09/01 00:17:04;;;;;;;23.10;20.80;;;16.70;99.90;;;;;;5011362;28;20459;-68
2022/09/01 00:19:32;;;;;;;22.70;20.30;;;16.70;99.90;;;;;;5011388;28;20457;-68
2022/09/01 00:21:58;;;;;;;21.30;19.27;;;16.70;99.90;;;;;;5011463;28;20494;-68
2022/09/01 00:24:25;;;;;;;22.50;20.23;;;16.60;99.90;;;;;;5011289;28;20422;-69
2022/09/01 00:26:52;;;;;;;20.60;18.57;;;16.70;99.90;;;;;;5011356;28;20920;-68
2022/09/01 00:29:18;;;;;;;25.23;21.07;;;16.60;99.90;;;;;;5011248;28;20399;-68
2022/09/01 00:31:44;;;;;;;22.90;20.50;;;16.60;1.00;;;;;;5011293;28;20954;-68
2022/09/01 00:34:10;;;;;;;23.97;21.67;;;16.60;1.00;;;;;;5011251;28;20399;-68
2022/09/01 00:36:36;;;;;;;26.00;23.27;;;16.30;1.00;;;;;;5011225;28;20419;-68
2022/09/01 00:39:04;;;;;;;23.13;20.70;;;16.40;1.00;;;;;;5010504;28;20771;-68
2022/09/01 00:41:32;;;;;;;22.50;20.30;;;16.40;1.00;;;;;;5011138;28;20458;-68
2022/09/01 00:44:04;;;;;;;20.63;18.67;;;16.60;1.00;;;;;;5011194;28;20412;-68
2022/09/01 00:46:34;;;;;;;21.20;18.93;;;16.60;1.00;;;;;;5010995;28;20494;-68
2022/09/01 00:49:20;;;;;;;21.10;19.03;;;16.60;1.00;;;;;;5010778;28;20407;-68
2022/09/01 00:51:50;;;;;;;22.30;19.80;;;16.60;1.00;;;;;;5011224;28;20399;-68
2022/09/01 00:54:22;;;;;;;23.60;21.40;;;16.40;1.00;;;;;;5011077;28;20422;-68
2022/09/01 00:56:49;;;;;;;28.00;22.00;;;16.50;1.00;;;;;;5011089;28;20518;-68
2022/09/01 00:59:17;;;;;;;22.73;20.30;;;16.60;1.00;;;;;;5011056;28;20988;-68
2022/09/01 01:01:43;;;;;;;22.77;20.60;;;16.50;1.00;;;;;;5011021;28;20419;-68
2022/09/01 01:04:13;;;;;;;24.03;21.57;;;16.50;1.00;;;;;;5011163;28;20408;-68
2022/09/01 01:06:48;;;;;;;24.60;22.07;;;16.50;1.00;;;;;;5011074;28;20494;-68
2022/09/01 01:09:16;;;;;;;24.57;22.10;;;16.40;1.00;;;;;;5010686;28;20406;-68
2022/09/01 01:11:46;;;;;;;22.30;20.20;;;16.40;1.00;;;;;;5010879;28;20924;-69
2022/09/01 01:14:16;;;;;;;23.80;21.30;;;16.50;1.00;;;;;;5010980;28;20427;-68
2022/09/01 01:16:45;;;;;;;24.80;22.20;;;16.50;1.00;;;;;;5010830;28;20577;-68
2022/09/01 01:25:16;;;;;;;45.73;23.23;;;16.40;1.00;;;;;;5010954;28;20453;-68
2022/09/01 01:27:42;;;;;;;24.30;21.80;;;16.20;1.00;;;;;;5010607;28;20424;-68
2022/09/01 01:30:10;;;;;;;25.03;22.20;;;16.30;1.00;;;;;;5010818;28;20411;-68
2022/09/01 01:32:42;;;;;;;23.03;20.83;;;16.30;1.00;;;;;;5010440;28;20657;-68
2022/09/01 01:35:13;;;;;;;25.13;21.60;;;16.40;1.00;;;;;;5010855;28;20403;-68
2022/09/01 01:37:44;;;;;;;23.73;20.97;;;16.50;1.00;;;;;;5010441;28;20408;-68
2022/09/01 01:40:14;;;;;;;24.57;21.70;;;16.70;1.00;;;;;;5010216;28;20414;-68
2022/09/01 01:42:44;;;;;;;25.17;22.57;;;16.10;1.00;;;;;;5010530;28;20453;-68
2022/09/01 01:45:11;;;;;;;26.87;23.10;;;15.90;1.00;;;;;;5010540;28;20814;-68
2022/09/01 01:47:38;;;;;;;26.10;23.07;;;15.80;1.00;;;;;;5010297;28;20967;-68
2022/09/01 01:50:08;;;;;;;26.97;23.37;;;15.90;1.00;;;;;;5011162;28;20414;-68
2022/09/01 01:52:34;;;;;;;27.70;24.87;;;16.10;1.00;;;;;;5014212;28;20403;-69
2022/09/01 01:55:01;;;;;;;27.37;24.57;;;16.10;1.00;;;;;;5014255;28;20408;-68
2022/09/01 01:57:30;;;;;;;26.47;23.77;;;16.20;1.00;;;;;;5013890;28;20947;-68
2022/09/01 01:59:56;;;;;;;27.13;23.83;;;16.10;1.00;;;;;;5014417;28;20413;-68
2022/09/01 02:02:23;;;;;;;26.63;23.70;;;16.20;1.00;;;;;;5014607;28;20403;-69
2022/09/01 02:04:48;;;;;;;28.97;26.13;;;16.20;1.00;;;;;;5014174;28;20399;-68
2022/09/01 02:07:14;;;;;;;29.30;23.60;;;16.10;1.00;;;;;;5013661;28;20485;-68
2022/09/01 02:09:44;;;;;;;27.53;24.70;;;16.10;1.00;;;;;;5013678;28;20172;-67
2022/09/01 02:12:10;;;;;;;24.60;22.03;;;16.10;1.00;;;;;;5013998;28;20479;-68
2022/09/01 02:14:37;;;;;;;26.30;23.20;;;16.30;1.00;;;;;;5013859;28;20421;-67
2022/09/01 02:17:05;;;;;;;23.87;21.37;;;16.30;1.00;;;;;;5013559;28;20664;-68
2022/09/01 02:19:30;;;;;;;25.17;22.43;;;16.30;1.00;;;;;;5013958;28;20402;-67
2022/09/01 02:21:58;;;;;;;27.07;24.37;;;16.30;1.00;;;;;;5013632;28;20768;-67
2022/09/01 02:24:25;;;;;;;26.37;23.57;;;16.30;1.00;;;;;;5013627;28;20200;-67
2022/09/01 02:26:51;;;;;;;28.60;25.23;;;16.40;1.00;;;;;;5013343;28;20463;-67
2022/09/01 02:29:22;;;;;;;25.60;22.97;;;16.40;1.00;;;;;;5013437;28;20409;-67
2022/09/01 02:31:51;;;;;;;25.90;23.20;;;16.50;1.00;;;;;;5013913;28;20640;-68
2022/09/01 02:34:18;;;;;;;28.73;22.73;;;16.50;1.00;;;;;;5013932;28;20410;-67
2022/09/01 02:36:49;;;;;;;30.87;24.77;;;16.30;1.00;;;;;;5013460;28;20439;-69
2022/09/01 02:39:25;;;;;;;25.03;22.53;;;16.50;1.00;;;;;;5013136;28;20426;-67
2022/09/01 02:41:52;;;;;;;26.63;22.60;;;16.60;1.00;;;;;;5013506;28;20414;-67
2022/09/01 02:44:20;;;;;;;34.10;23.43;;;16.70;1.00;;;;;;5013317;28;20411;-67
2022/09/01 02:46:47;;;;;;;25.50;22.97;;;16.60;1.00;;;;;;5013158;28;20455;-67
2022/09/01 02:49:20;;;;;;;26.83;24.00;;;16.60;1.00;;;;;;5011742;28;20423;-67
2022/09/01 02:51:51;;;;;;;25.70;23.00;;;16.60;1.00;;;;;;5013099;28;20416;-67
2022/09/01 02:54:18;;;;;;;25.67;23.10;;;16.60;1.00;;;;;;5013251;28;20430;-67
2022/09/01 02:56:47;;;;;;;25.67;23.00;;;16.50;1.00;;;;;;5012965;28;21327;-67
2022/09/01 02:59:20;;;;;;;25.17;22.10;;;16.40;1.00;;;;;;5012871;28;20809;-67
2022/09/01 03:01:48;;;;;;;25.23;20.40;;;16.50;1.00;;;;;;5012703;28;20415;-67
2022/09/01 03:04:14;;;;;;;23.67;20.30;;;16.50;1.00;;;;;;5013129;28;20404;-67
2022/09/01 03:06:40;;;;;;;23.20;20.80;;;16.60;1.00;;;;;;5012833;28;20455;-67
2022/09/01 03:09:11;;;;;;;23.43;20.57;;;16.40;1.00;;;;;;5012600;28;20400;-67
2022/09/01 03:11:39;;;;;;;23.60;21.20;;;16.50;1.00;;;;;;5012936;28;20411;-67
2022/09/01 03:14:06;;;;;;;21.53;19.30;;;16.50;1.00;;;;;;5012658;28;20403;-67
2022/09/01 03:16:33;;;;;;;23.40;19.83;;;16.50;1.00;;;;;;5011247;28;20800;-67
2022/09/01 03:18:58;;;;;;;22.70;20.47;;;16.50;1.00;;;;;;5012164;28;20550;-67
2022/09/01 03:21:25;;;;;;;20.93;18.97;;;16.40;1.00;;;;;;5012361;28;20513;-67
2022/09/01 03:23:51;;;;;;;21.80;19.60;;;16.40;1.00;;;;;;5012535;28;20168;-67
2022/09/01 03:26:20;;;;;;;23.70;21.10;;;16.60;1.00;;;;;;5012430;28;20459;-67
2022/09/01 03:28:47;;;;;;;23.13;20.80;;;16.70;1.00;;;;;;5011802;28;20876;-67
2022/09/01 03:31:13;;;;;;;23.00;20.70;;;16.90;1.00;;;;;;5012456;28;20407;-67
2022/09/01 03:33:40;;;;;;;22.77;19.97;;;16.90;1.00;;;;;;5012459;28;20410;-68
2022/09/01 03:36:06;;;;;;;21.57;19.37;;;16.90;1.00;;;;;;5012328;28;20439;-67
2022/09/01 03:38:33;;;;;;;22.50;20.07;;;17.00;1.00;;;;;;5011873;28;20407;-67
2022/09/01 03:41:01;;;;;;;24.90;22.30;;;17.00;1.00;;;;;;5012227;28;20414;-68
2022/09/01 03:43:32;;;;;;;23.33;20.93;;;17.00;1.00;;;;;;5012060;28;20486;-67
2022/09/01 03:45:59;;;;;;;23.10;20.83;;;17.00;1.00;;;;;;5011885;28;20851;-67
2022/09/01 03:48:27;;;;;;;24.10;21.60;;;17.00;1.00;;;;;;5011850;28;20407;-67
2022/09/01 03:50:54;;;;;;;23.87;21.47;;;17.00;1.00;;;;;;5011858;28;20430;-67
2022/09/01 03:53:22;;;;;;;23.00;20.60;;;16.90;1.00;;;;;;5012114;28;20406;-67
2022/09/01 03:55:49;;;;;;;22.80;20.50;;;16.90;1.00;;;;;;5011914;28;20431;-67
2022/09/01 03:58:17;;;;;;;26.30;21.13;;;16.90;1.00;;;;;;5011606;28;20446;-67
2022/09/01 04:00:47;;;;;;;23.00;20.70;;;17.00;1.00;;;;;;5011783;28;20438;-67
2022/09/01 04:03:15;;;;;;;22.80;20.30;;;17.00;1.00;;;;;;5011997;28;20434;-67
2022/09/01 04:05:44;;;;;;;25.63;20.30;;;16.90;1.00;;;;;;5011514;28;20454;-67
2022/09/01 04:08:11;;;;;;;21.87;19.67;;;16.90;1.00;;;;;;5011421;28;20404;-68
2022/09/01 04:10:51;;;;;;;22.80;20.37;;;16.90;1.00;;;;;;5011867;28;20407;-67
2022/09/01 04:13:20;;;;;;;24.17;20.53;;;16.80;1.00;;;;;;5010962;28;21019;-68
2022/09/01 04:15:47;;;;;;;22.80;20.50;;;16.70;1.00;;;;;;5011567;28;20427;-67
2022/09/01 04:18:20;;;;;;;23.20;20.80;;;16.70;1.00;;;;;;5011341;28;20438;-68
2022/09/01 04:20:57;;;;;;;21.87;19.57;;;16.80;1.00;;;;;;5011617;28;20419;-68
2022/09/01 04:23:29;;;;;;;22.43;20.00;;;16.80;1.00;;;;;;5011360;28;20417;-67
2022/09/01 04:25:58;;;;;;;23.00;19.13;;;16.90;1.00;;;;;;5011221;28;20462;-68
2022/09/01 04:28:32;;;;;;;21.60;19.37;;;16.80;1.00;;;;;;5010784;28;20812;-67
2022/09/01 04:30:58;;;;;;;22.00;19.70;;;16.80;1.00;;;;;;5011275;28;20404;-68
2022/09/01 04:33:26;;;;;;;34.63;20.70;;;16.80;1.00;;;;;;5011235;28;20896;-67
2022/09/01 04:35:55;;;;;;;25.07;22.67;;;16.80;1.00;;;;;;5011132;28;20200;-67
2022/09/01 04:38:24;;;;;;;23.40;21.10;;;16.70;1.00;;;;;;5009263;28;20423;-68
2022/09/01 04:40:51;;;;;;;23.40;21.00;;;16.80;1.00;;;;;;5002864;28;20788;-67
2022/09/01 04:43:17;;;;;;;23.40;21.00;;;16.60;1.00;;;;;;5010908;28;20414;-67
2022/09/01 04:45:45;;;;;;;23.70;21.10;;;16.70;1.00;;;;;;5010682;28;20466;-67
2022/09/01 04:48:10;;;;;;;25.60;21.80;;;16.80;1.00;;;;;;5010842;28;20168;-67
2022/09/01 04:50:39;;;;;;;22.80;20.50;;;16.70;1.00;;;;;;5011192;28;20415;-67
2022/09/01 04:53:06;;;;;;;25.33;21.80;;;16.70;1.00;;;;;;5011088;28;20176;-67
2022/09/01 04:55:32;;;;;;;25.93;20.80;;;16.70;1.00;;;;;;5010806;28;20912;-67
2022/09/01 04:58:01;;;;;;;22.07;19.87;;;16.70;1.00;;;;;;5010847;28;20407;-66
2022/09/01 05:00:31;;;;;;;26.40;20.90;;;16.80;1.00;;;;;;5011046;28;20164;-67
2022/09/01 05:03:03;;;;;;;23.30;20.90;;;16.90;1.00;;;;;;5010786;28;20489;-67
2022/09/01 05:05:38;;;;;;;22.43;20.23;;;16.80;1.00;;;;;;5010732;28;20798;-68
2022/09/01 05:08:06;;;;;;;23.43;21.03;;;16.80;1.00;;;;;;5010745;28;20407;-67
2022/09/01 05:10:34;;;;;;;23.93;21.33;;;16.90;1.00;;;;;;5010614;28;20411;-67
2022/09/01 05:13:00;;;;;;;23.83;20.20;;;16.90;1.00;;;;;;5010810;28;20800;-66
2022/09/01 05:15:26;;;;;;;22.70;20.40;;;16.90;1.00;;;;;;5010623;28;20415;-68
2022/09/01 05:17:53;;;;;;;21.87;19.53;;;16.90;1.00;;;;;;5010690;28;20359;-67
2022/09/01 05:20:20;;;;;;;21.70;19.60;;;16.90;1.00;;;;;;5010644;28;20537;-67
2022/09/01 05:22:46;;;;;;;22.53;20.33;;;16.90;1.00;;;;;;5010755;28;20415;-67
2022/09/01 05:25:14;;;;;;;23.37;20.90;;;16.90;1.00;;;;;;5013689;28;20501;-67
2022/09/01 05:27:45;;;;;;;23.70;21.40;;;16.90;1.00;;;;;;5014660;28;20176;-67
2022/09/01 05:30:11;;;;;;;22.37;20.10;;;16.70;1.00;;;;;;5014577;28;20407;-67
2022/09/01 05:32:38;;;;;;;24.07;20.37;;;16.70;1.00;;;;;;5014424;28;20856;-67
2022/09/01 05:35:07;;;;;;;24.03;21.67;;;16.80;1.00;;;;;;5014466;28;20395;-67
2022/09/01 05:37:36;;;;;;;23.23;20.83;;;16.80;1.00;;;;;;5014180;28;20419;-67
2022/09/01 05:40:04;;;;;;;24.23;21.80;;;16.90;1.00;;;;;;5014330;28;20407;-67
2022/09/01 05:42:30;;;;;;;22.20;20.00;;;16.80;1.00;;;;;;5014261;28;20735;-67
2022/09/01 05:44:57;;;;;;;30.43;21.30;;;16.80;1.00;;;;;;5014069;28;20900;-67
2022/09/01 05:47:25;;;;;;;24.00;20.67;;;16.80;1.00;;;;;;5013988;28;20541;-66
2022/09/01 05:49:52;;;;;;;20.73;18.33;;;16.90;1.00;;;;;;5014021;28;20399;-68
2022/09/01 05:52:24;;;;;;;22.70;19.10;;;16.90;1.00;;;;;;5012837;28;20908;-68
2022/09/01 05:54:50;;;;;;;20.63;18.60;;;16.90;1.00;;;;;;5014144;28;20403;-67
2022/09/01 05:57:18;;;;;;;19.73;17.83;;;17.00;1.00;;;;;;5013867;28;20423;-67
2022/09/01 05:59:44;;;;;;;26.53;20.73;;;16.90;1.00;;;;;;5013926;28;20415;-67
2022/09/01 06:02:11;;;;;;;22.83;18.50;;;17.00;1.00;;;;;;5014105;28;20407;-67
2022/09/01 06:04:42;;;;;;;20.90;18.87;;;17.10;1.00;;;;;;5014151;28;20490;-67
2022/09/01 06:07:13;;;;;;;18.37;16.57;;;17.10;1.00;;;;;;5013802;28;20443;-68
2022/09/01 06:09:45;;;;;;;20.37;18.30;;;17.00;1.00;;;;;;5013572;28;20403;-67
2022/09/01 06:12:16;;;;;;;20.73;18.63;;;17.00;1.00;;;;;;5013810;28;20853;-67
2022/09/01 06:14:43;;;;;;;19.20;17.27;;;17.00;1.00;;;;;;5013875;28;20461;-68
2022/09/01 06:17:10;;;;;;;20.97;17.87;;;17.10;1.00;;;;;;5013463;28;20438;-67
2022/09/01 06:19:39;;;;;;;20.80;18.63;;;16.90;1.00;;;;;;5013556;28;20494;-67
2022/09/01 06:22:04;;;;;;;20.53;18.13;;;16.60;1.00;;;;;;5013506;28;20407;-67
2022/09/01 06:24:30;;;;;;;22.30;20.10;;;16.60;1.00;;;;;;5013629;28;20408;-67
2022/09/01 06:26:56;;;;;;;22.10;19.80;;;16.70;1.00;;;;;;5013465;28;20230;-67
2022/09/01 06:29:22;;;;;;;20.20;18.10;;;16.70;1.00;;;;;;5013056;28;20610;-67
2022/09/01 06:31:50;;;;;;;21.20;18.90;;;16.60;1.00;;;;;;5011167;28;20211;-67
2022/09/01 06:34:16;;;;;;;21.20;19.10;;;16.90;1.00;;;;;;5013367;28;20191;-67
2022/09/01 06:36:44;;;;;;;20.00;18.10;;;17.80;1.00;;;;;;5012255;28;20928;-67
2022/09/01 06:39:18;;;;;;;21.27;19.17;;;18.80;99.90;;;;;;5012933;28;20497;-67
2022/09/01 06:41:51;;;;;;;21.53;19.40;;;19.00;1.00;;;;;;5013322;28;20771;-67
2022/09/01 06:44:24;;;;;;;19.17;17.27;;;18.60;1.00;;;;;;5013553;28;20415;-67
2022/09/01 06:46:51;;;;;;;19.83;17.20;;;18.30;1.00;;;;;;5013358;28;20463;-67
2022/09/01 06:49:17;;;;;;;20.30;18.30;;;18.00;99.90;;;;;;5013132;28;20411;-66
2022/09/01 06:51:43;;;;;;;20.43;17.40;;;17.60;99.90;;;;;;5014809;28;20419;-67
2022/09/01 06:54:13;;;;;;;20.50;17.10;;;17.60;99.90;;;;;;5017244;28;20416;-67
2022/09/01 06:56:39;;;;;;;19.37;16.77;;;17.90;99.90;;;;;;5019057;28;20467;-67
2022/09/01 06:59:06;;;;;;;19.17;16.83;;;17.80;1.00;;;;;;5015845;28;20412;-67
2022/09/01 07:01:33;;;;;;;18.60;16.80;;;17.90;1.00;;;;;;5012953;28;20835;-66
2022/09/01 07:03:59;;;;;;;18.30;16.53;;;18.00;1.00;;;;;;5013105;28;20408;-67
2022/09/01 07:06:28;;;;;;;16.37;14.73;;;18.10;1.00;;;;;;5012786;28;20566;-67
2022/09/01 07:08:57;;;;;;;17.53;15.77;;;18.00;1.00;;;;;;5012406;28;20419;-66
2022/09/01 07:11:26;;;;;;;16.23;14.63;;;18.00;1.00;;;;;;5012841;28;20404;-67
2022/09/01 07:13:57;;;;;;;16.57;14.77;;;17.80;1.00;;;;;;5012699;28;20407;-67
2022/09/01 07:16:25;;;;;;;15.67;14.27;;;17.60;1.00;;;;;;5012807;28;20439;-67
2022/09/01 07:18:55;;;;;;;15.87;14.43;;;17.60;1.00;;;;;;5012411;28;20510;-67
2022/09/01 07:21:22;;;;;;;18.73;13.80;;;17.60;1.00;;;;;;5012744;28;20445;-67
2022/09/01 07:23:48;;;;;;;15.40;13.87;;;17.60;1.00;;;;;;5012820;28;20414;-67
2022/09/01 07:26:18;;;;;;;19.73;14.30;;;17.30;1.00;;;;;;5012412;28;20963;-67
2022/09/01 07:28:49;;;;;;;16.23;14.63;;;17.10;99.90;;;;;;5012503;28;20172;-67
2022/09/01 07:31:24;;;;;;;15.80;14.30;;;17.10;99.90;;;;;;5012872;28;20411;-67
2022/09/01 07:33:51;;;;;;;14.60;13.17;;;17.30;99.90;;;;;;5012845;28;20441;-67
2022/09/01 07:36:18;;;;;;;14.77;13.27;;;17.50;12.30;;;;;;5012499;28;20422;-67
2022/09/01 07:38:44;;;;;;;13.80;12.50;;;17.60;1.00;;;;;;5012264;28;20415;-67
2022/09/01 07:41:14;;;;;;;14.30;12.90;;;17.50;1.00;;;;;;5012424;28;20411;-67
2022/09/01 07:43:43;;;;;;;14.83;13.23;;;17.50;1.00;;;;;;5012512;28;20407;-67
2022/09/01 07:46:10;;;;;;;17.13;13.07;;;17.70;1.00;;;;;;5012253;28;20458;-67
2022/09/01 07:48:38;;;;;;;13.60;12.40;;;17.80;99.90;;;;;;5012026;28;20427;-66
2022/09/01 07:51:04;;;;;;;17.50;13.80;;;17.80;1.00;;;;;;5012122;28;20422;-67
2022/09/01 07:53:33;;;;;;;14.13;12.83;;;17.80;1.00;;;;;;5012214;28;20418;-67
2022/09/01 07:56:08;;;;;;;12.47;11.13;;;17.90;99.90;;;;;;5012223;28;20438;-67
2022/09/01 07:58:35;;;;;;;12.77;11.47;;;18.00;1.00;;;;;;5011964;28;20447;-66
2022/09/01 08:01:05;;;;;;;12.50;11.40;;;18.50;25.70;;;;;;5012272;28;20421;-67
2022/09/01 08:03:30;;;;;;;11.97;10.80;;;18.60;99.90;;;;;;5012166;28;20509;-67
2022/09/01 08:06:10;;;;;;;14.30;12.90;;;18.40;1.00;;;;;;5011838;28;20451;-67
2022/09/01 08:08:38;;;;;;;15.33;13.53;;;18.30;1.00;;;;;;5011723;28;20227;-66
2022/09/01 08:11:05;;;;;;;12.43;11.23;;;17.90;1.00;;;;;;5011943;28;20411;-67
2022/09/01 08:13:34;;;;;;;12.93;11.63;;;17.60;99.90;;;;;;5012129;28;20900;-67
2022/09/01 08:16:05;;;;;;;13.00;11.90;;;17.50;1.00;;;;;;5011574;28;20439;-67
2022/09/01 08:18:31;;;;;;;11.23;10.13;;;17.60;99.90;;;;;;5011488;28;20489;-66
2022/09/01 08:20:57;;;;;;;13.87;12.50;;;17.70;1.00;;;;;;5012002;28;20482;-66
2022/09/01 08:23:25;;;;;;;13.27;11.87;;;17.70;1.00;;;;;;5011731;28;20419;-67
2022/09/01 08:25:52;;;;;;;12.50;11.30;;;17.80;1.00;;;;;;5011575;28;20235;-66
2022/09/01 08:28:19;;;;;;;17.67;11.70;;;18.00;99.90;;;;;;5011680;28;20816;-67
2022/09/01 08:30:47;;;;;;;16.13;11.10;;;18.00;1.00;;;;;;5012103;28;20411;-68
2022/09/01 08:33:13;;;;;;;13.20;11.90;;;18.10;99.90;;;;;;5010949;28;20443;-68
2022/09/01 08:35:41;;;;;;;12.50;11.40;;;18.00;1.00;;;;;;5009784;28;20943;-68
2022/09/01 08:38:07;;;;;;;13.10;10.90;;;18.00;1.00;;;;;;5010583;28;20507;-68
2022/09/01 08:40:34;;;;;;;11.87;10.80;;;18.10;1.00;;;;;;5010850;28;20831;-68
2022/09/01 08:43:24;;;;;;;10.30;9.40;;;18.30;99.90;;;;;;5011191;28;20919;-68
2022/09/01 08:45:53;;;;;;;10.23;9.10;;;18.30;59.60;;;;;;5011029;28;20478;-68
2022/09/01 08:48:41;;;;;;;10.80;9.70;;;18.30;1.00;;;;;;5010852;28;20414;-69
2022/09/01 08:51:37;;;;;;;9.73;8.80;;;18.20;1.00;;;;;;5010927;28;20407;-68
2022/09/01 08:54:32;;;;;;;9.20;8.30;;;18.20;99.90;;;;;;5006715;28;20426;-68
2022/09/01 08:57:04;;;;;;;9.77;8.77;;;18.30;1.00;;;;;;5008667;28;20558;-74
2022/09/01 08:59:30;;;;;;;11.10;10.07;;;18.40;1.00;;;;;;5010356;28;20404;-68
2022/09/01 09:02:23;;;;;;;28.23;9.70;;;18.40;1.00;;;;;;5011075;28;20409;-68
2022/09/01 09:05:16;;;;;;;15.40;13.80;;;18.40;1.00;;;;;;5010843;28;20200;-68
2022/09/01 09:07:57;;;;;;;14.40;11.27;;;18.40;1.00;;;;;;5010703;28;20468;-68
2022/09/01 09:10:36;;;;;;;10.33;9.40;;;18.50;1.00;;;;;;5010978;28;20410;-68
2022/09/01 09:13:12;;;;;;;16.37;14.80;;;18.50;1.00;;;;;;5011236;28;20498;-69
2022/09/01 09:15:50;;;;;;;18.97;16.33;;;18.50;1.00;;;;;;5010722;28;20463;-69
2022/09/01 09:18:26;;;;;;;24.63;22.23;;;18.50;1.00;;;;;;5010379;28;20936;-68
2022/09/01 09:20:52;;;;;;;16.33;14.63;;;18.50;1.00;;;;;;5010803;28;20505;-68
2022/09/01 09:23:30;;;;;;;22.13;19.93;;;18.70;1.00;;;;;;5010602;28;20511;-68
2022/09/01 09:25:56;;;;;;;15.53;14.20;;;18.80;1.00;;;;;;5010678;28;20596;-68
2022/09/01 09:28:22;;;;;;;18.87;16.97;;;18.80;1.00;;;;;;5010349;28;20415;-68
2022/09/01 09:30:47;;;;;;;15.67;14.23;;;18.80;1.00;;;;;;5010881;28;20412;-68
2022/09/01 09:33:35;;;;;;;13.70;12.40;;;18.80;1.00;;;;;;5010927;28;20177;-68
2022/09/01 09:36:22;;;;;;;12.57;11.27;;;18.80;1.00;;;;;;5010816;28;20199;-68
2022/09/01 09:39:02;;;;;;;13.47;11.53;;;18.80;1.00;;;;;;5010898;28;20407;-68
2022/09/01 09:41:28;;;;;;;12.33;11.10;;;18.60;1.00;;;;;;5010461;28;20514;-68
2022/09/01 09:44:03;;;;;;;13.57;10.83;;;18.70;1.00;;;;;;5010499;28;20498;-68
2022/09/01 09:46:31;;;;;;;11.00;10.00;;;18.80;1.00;;;;;;5010358;28;20251;-67
2022/09/01 09:49:26;;;;;;;10.63;9.63;;;18.90;1.00;;;;;;5010342;28;20482;-67
2022/09/01 09:52:10;;;;;;;12.87;11.67;;;18.90;99.90;;;;;;5010523;28;20403;-67
2022/09/01 09:54:38;;;;;;;14.07;11.57;;;19.00;99.90;;;;;;5010376;28;20399;-68
2022/09/01 09:57:16;;;;;;;10.93;10.00;;;19.00;99.90;;;;;;5010402;28;20904;-67
2022/09/01 09:59:47;;;;;;;16.93;15.13;;;19.10;99.90;;;;;;5010793;28;20995;-68
2022/09/01 10:02:22;;;;;;;10.17;9.27;;;19.40;99.90;;;;;;5011232;28;20418;-68
2022/09/01 10:04:48;;;;;;;10.17;9.17;;;19.30;99.90;;;;;;5010105;28;20442;-67
2022/09/01 10:07:31;;;;;;;9.90;8.90;;;19.20;99.90;;;;;;5009952;28;20995;-67
2022/09/01 10:09:59;;;;;;;10.57;9.57;;;19.30;99.90;;;;;;5010205;28;20311;-67
2022/09/01 10:12:26;;;;;;;12.57;8.50;;;19.20;99.90;;;;;;5012880;28;20883;-68
2022/09/01 10:15:14;;;;;;;9.00;8.20;;;19.40;99.90;;;;;;5013827;28;20849;-68
2022/09/01 10:17:43;;;;;;;9.00;8.30;;;19.70;99.90;;;;;;5013167;28;20435;-68
2022/09/01 10:20:29;;;;;;;10.77;9.77;;;19.10;99.90;;;;;;5013898;28;20491;-68
2022/09/01 10:22:55;;;;;;;8.83;7.93;;;18.90;99.90;;;;;;5013432;28;20419;-69
2022/09/01 10:25:29;;;;;;;8.80;8.07;;;19.00;99.90;;;;;;5013875;28;20462;-68
2022/09/01 10:28:00;;;;;;;8.80;8.00;;;18.70;99.90;;;;;;5013996;28;20434;-68
2022/09/01 10:30:29;;;;;;;9.30;8.50;;;18.70;99.90;;;;;;5013576;28;20979;-67
2022/09/01 10:32:58;;;;;;;9.33;8.37;;;19.00;99.90;;;;;;5013711;28;20414;-67
2022/09/01 10:35:36;;;;;;;9.33;8.50;;;19.20;99.90;;;;;;5013644;28;20407;-67
2022/09/01 10:38:13;;;;;;;8.63;7.80;;;19.30;99.90;;;;;;5013262;28;20406;-67
2022/09/01 10:40:45;;;;;;;11.77;8.80;;;19.20;99.90;;;;;;5013606;28;20884;-67
2022/09/01 10:43:22;;;;;;;8.43;7.17;;;19.10;99.90;;;;;;5013506;28;20557;-67
2022/09/01 10:45:48;;;;;;;8.33;7.63;;;19.60;32.30;;;;;;5012124;28;20471;-66
2022/09/01 10:48:19;;;;;;;7.90;7.20;;;19.90;1.00;;;;;;5013185;28;20915;-66
2022/09/01 10:50:47;;;;;;;8.03;7.30;;;19.90;1.00;;;;;;5013718;28;20176;-66
2022/09/01 10:53:31;;;;;;;9.30;8.50;;;19.80;1.00;;;;;;5014115;28;20407;-66
2022/09/01 10:56:16;;;;;;;9.93;9.03;;;19.50;1.00;;;;;;5013529;28;20779;-66
2022/09/01 10:59:05;;;;;;;8.43;7.73;;;19.40;1.00;;;;;;5013379;28;20840;-66
2022/09/01 11:01:40;;;;;;;8.77;7.90;;;19.30;1.00;;;;;;5013084;28;20417;-67
2022/09/01 11:04:08;;;;;;;10.07;8.33;;;19.30;1.00;;;;;;5013163;28;20407;-66
2022/09/01 11:06:57;;;;;;;9.20;8.10;;;19.30;1.00;;;;;;5012861;28;20470;-66
2022/09/01 11:09:39;;;;;;;8.83;8.03;;;19.50;1.00;;;;;;5013332;28;20469;-66
2022/09/01 11:12:09;;;;;;;10.80;8.30;;;19.50;1.00;;;;;;5012833;28;20967;-67
2022/09/01 11:14:51;;;;;;;8.13;7.50;;;19.60;1.00;;;;;;5013186;28;20426;-66
2022/09/01 11:17:25;;;;;;;7.30;6.60;;;19.50;1.00;;;;;;5012701;28;20474;-66
2022/09/01 11:20:10;;;;;;;7.53;6.83;;;19.70;1.00;;;;;;5014251;28;20761;-67
2022/09/01 11:22:41;;;;;;;7.87;7.27;;;20.00;1.00;;;;;;5013672;28;20511;-67
2022/09/01 11:25:10;;;;;;;7.80;7.20;;;20.00;1.00;;;;;;5014267;28;20752;-67
2022/09/01 11:27:48;;;;;;;6.93;6.33;;;20.20;1.00;;;;;;5013814;28;20455;-67
2022/09/01 11:30:22;;;;;;;8.33;7.53;;;20.10;1.00;;;;;;5012418;28;20433;-67
2022/09/01 11:32:58;;;;;;;8.40;7.23;;;20.10;1.00;;;;;;5012279;28;20403;-67
2022/09/01 11:35:27;;;;;;;8.20;7.40;;;19.80;1.00;;;;;;5012100;28;20411;-68
2022/09/01 11:38:04;;;;;;;8.00;7.30;;;20.10;1.00;;;;;;5012057;28;20489;-66
2022/09/01 11:40:33;;;;;;;8.13;7.33;;;20.30;1.00;;;;;;5012026;28;20415;-67
2022/09/01 11:43:12;;;;;;;8.87;7.63;;;20.20;1.00;;;;;;5012449;28;20407;-66
2022/09/01 11:45:54;;;;;;;8.90;8.00;;;20.10;1.00;;;;;;5011760;28;20975;-66
2022/09/01 11:48:20;;;;;;;11.63;8.70;;;20.10;1.00;;;;;;5012190;28;20895;-67
2022/09/01 11:50:59;;;;;;;7.57;6.87;;;20.20;1.00;;;;;;5012931;28;20411;-67
2022/09/01 11:53:26;;;;;;;10.63;7.57;;;20.40;1.00;;;;;;5013915;28;20262;-67
2022/09/01 11:55:56;;;;;;;7.60;6.90;;;20.70;1.00;;;;;;5012310;28;20809;-67
2022/09/01 11:58:33;;;;;;;10.90;7.43;;;20.80;1.00;;;;;;5011831;28;20399;-66
2022/09/01 12:01:11;;;;;;;15.03;7.47;;;20.00;1.00;;;;;;5012946;28;20391;-66
2022/09/01 12:03:36;;;;;;;7.93;7.23;;;19.90;1.00;;;;;;5012366;28;20505;-66
2022/09/01 12:06:05;;;;;;;7.60;6.90;;;20.00;1.00;;;;;;5012096;28;20542;-66
2022/09/01 12:08:37;;;;;;;7.10;6.33;;;20.10;1.00;;;;;;5011850;28;20186;-66
2022/09/01 12:11:18;;;;;;;10.03;7.83;;;20.20;1.00;;;;;;5012118;28;20434;-66
2022/09/01 12:13:56;;;;;;;7.67;6.87;;;20.30;1.00;;;;;;5011977;28;20408;-66
2022/09/01 12:16:21;;;;;;;9.73;7.30;;;20.60;1.00;;;;;;5011802;28;20434;-66
2022/09/01 12:18:52;;;;;;;6.83;6.13;;;20.70;1.00;;;;;;5011556;28;20534;-66
2022/09/01 12:21:42;;;;;;;15.97;7.27;;;20.80;1.00;;;;;;5011687;28;20171;-66
2022/09/01 12:24:20;;;;;;;10.73;9.00;;;21.10;99.90;;;;;;5011956;28;20884;-66
2022/09/01 12:26:48;;;;;;;8.70;7.80;;;21.10;99.90;;;;;;5011223;28;20463;-66
2022/09/01 12:29:15;;;;;;;7.30;6.60;;;20.60;99.90;;;;;;5009383;28;20849;-66
2022/09/01 12:31:44;;;;;;;7.50;6.80;;;20.60;99.90;;;;;;5009376;28;20515;-66
2022/09/01 12:34:25;;;;;;;7.60;6.77;;;20.60;99.90;;;;;;5010014;28;20412;-66
2022/09/01 12:37:06;;;;;;;6.57;5.97;;;20.60;1.00;;;;;;5011637;28;20849;-66
2022/09/01 12:39:44;;;;;;;7.70;6.37;;;20.80;99.90;;;;;;5011534;28;20408;-67
2022/09/01 12:42:18;;;;;;;7.50;6.63;;;20.50;99.90;;;;;;5011499;28;20392;-66
2022/09/01 12:44:56;;;;;;;6.70;6.07;;;20.40;99.90;;;;;;5011354;28;20422;-66
2022/09/01 12:47:39;;;;;;;6.80;6.30;;;20.60;99.90;;;;;;5011347;28;20546;-66
2022/09/01 12:50:27;;;;;;;6.83;6.23;;;20.40;99.90;;;;;;5011431;28;20418;-67
2022/09/01 12:52:58;;;;;;;7.63;6.83;;;20.30;99.90;;;;;;5003635;28;20434;-66
2022/09/01 12:55:33;;;;;;;8.00;6.60;;;20.40;99.90;;;;;;5011339;28;20840;-67
2022/09/01 12:58:08;;;;;;;6.93;6.17;;;20.80;99.90;;;;;;5011196;28;20436;-68
2022/09/01 13:00:52;;;;;;;8.00;7.20;;;20.80;99.90;;;;;;5011398;28;20417;-68
2022/09/01 13:03:20;;;;;;;7.63;6.33;;;21.20;99.90;;;;;;5011301;28;20465;-67